PWSweather.com
Personal Weather Stations
Station Observations
HASBROUCK
Northern New Jersey, Hasbrouck Heights, NJ 07604

Northern New JerseyHasbrouck Heights, NJ 07604

Lat: 40.8563, Lon: -74.08453

Elevation: 160

Station Type: Davis Vantage Pro2 Plus

http://heightsweather.info

High Low Average
Temperature 51.8°F11.0°F 34.1°F1.2°F 43.1°F6.2°F
Dew Point 37.4°F3.0°F 27.7°F-2.4°F 33.2°F0.7°F
Winds 8.1 mph -13.0 mph - Calm Calm 2.5 mph 4.0 mph
Wind Gusts 12.7 mph20.4 mph -- 4.3 mph6.9 mph
Humidity 82% 57% 69%
Pressure 30.23 in1023.70 in 30.13 in1020.30 in -
Precipitation 0.00 in0.00 in - -
Hour Temp Dew Point Humidity Winds Wind Gusts Pressure Precip Precip Rate Daily Precip Total
12:00 AM 35.7°F2.1°C 27.9°F-2.3°C 73% 1.2 mph WNW1.9 kmh WNW 1.2 mph1.9 kmh 30.14 in1020.7 mb - 0.00 in0.0 mm 0.00 in0.0 mm
12:15 AM 35.5°F1.9°C 27.7°F-2.4°C 73% 2.3 mph WNW3.7 kmh WNW 4.6 mph7.4 kmh 30.14 in1020.7 mb - 0.00 in0.0 mm 0.00 in0.0 mm
12:30 AM 35.4°F1.9°C 28.0°F-2.2°C 74% 1.2 mph W1.9 kmh W 3.5 mph5.6 kmh 30.15 in1021.0 mb - 0.00 in0.0 mm 0.00 in0.0 mm
12:45 AM 35.1°F1.7°C 28.0°F-2.2°C 75% Calm Calm 2.3 mph3.7 kmh 30.15 in1021.0 mb - 0.00 in0.0 mm 0.00 in0.0 mm
01:00 AM 34.9°F1.6°C 27.7°F-2.4°C 75% Calm Calm -- 30.15 in1021.0 mb - 0.00 in0.0 mm 0.00 in0.0 mm
01:15 AM 34.6°F1.4°C 28.1°F-2.2°C 77% 1.2 mph W1.9 kmh W 2.3 mph3.7 kmh 30.15 in1021.0 mb - 0.00 in0.0 mm 0.00 in0.0 mm
01:30 AM 34.4°F1.3°C 27.9°F-2.3°C 77% Calm Calm 2.3 mph3.7 kmh 30.16 in1021.3 mb - 0.00 in0.0 mm 0.00 in0.0 mm
01:45 AM 34.9°F1.6°C 28.1°F-2.2°C 76% 2.3 mph W3.7 kmh W 3.5 mph5.6 kmh 30.16 in1021.3 mb - 0.00 in0.0 mm 0.00 in0.0 mm
02:00 AM 35.0°F1.7°C 28.2°F-2.1°C 76% 2.3 mph W3.7 kmh W 3.5 mph5.6 kmh 30.16 in1021.3 mb - 0.00 in0.0 mm 0.00 in0.0 mm
02:15 AM 34.9°F1.6°C 28.1°F-2.2°C 76% 2.3 mph WSW3.7 kmh WSW 3.5 mph5.6 kmh 30.16 in1021.3 mb - 0.00 in0.0 mm 0.00 in0.0 mm
02:30 AM 34.9°F1.6°C 28.1°F-2.2°C 76% Calm Calm -- 30.16 in1021.3 mb - 0.00 in0.0 mm 0.00 in0.0 mm
02:45 AM 34.1°F1.2°C 28.2°F-2.1°C 79% Calm Calm -- 30.16 in1021.3 mb - 0.00 in0.0 mm 0.00 in0.0 mm
03:00 AM 34.2°F1.2°C 28.4°F-2.0°C 79% Calm Calm -- 30.17 in1021.7 mb - 0.00 in0.0 mm 0.00 in0.0 mm
03:15 AM 34.4°F1.3°C 29.4°F-1.4°C 82% Calm Calm -- 30.17 in1021.7 mb - 0.00 in0.0 mm 0.00 in0.0 mm
03:30 AM 34.1°F1.2°C 28.6°F-1.9°C 80% 1.2 mph WSW1.9 kmh WSW 3.5 mph5.6 kmh 30.17 in1021.7 mb - 0.00 in0.0 mm 0.00 in0.0 mm
03:45 AM 34.6°F1.4°C 28.4°F-2.0°C 78% 2.3 mph WSW3.7 kmh WSW 3.5 mph5.6 kmh 30.18 in1022.0 mb - 0.00 in0.0 mm 0.00 in0.0 mm
04:00 AM 34.4°F1.3°C 28.3°F-2.1°C 78% 1.2 mph WSW1.9 kmh WSW 3.5 mph5.6 kmh 30.18 in1022.0 mb - 0.00 in0.0 mm 0.00 in0.0 mm
04:15 AM 34.8°F1.6°C 28.7°F-1.8°C 78% 2.3 mph WSW3.7 kmh WSW 3.5 mph5.6 kmh 30.17 in1021.7 mb - 0.00 in0.0 mm 0.00 in0.0 mm
04:30 AM 34.8°F1.6°C 28.3°F-2.1°C 77% Calm Calm 1.2 mph1.9 kmh 30.17 in1021.7 mb - 0.00 in0.0 mm 0.00 in0.0 mm
04:45 AM 34.6°F1.4°C 28.4°F-2.0°C 78% Calm Calm 1.2 mph1.9 kmh 30.17 in1021.7 mb - 0.00 in0.0 mm 0.00 in0.0 mm
05:00 AM 35.1°F1.7°C 28.6°F-1.9°C 77% Calm Calm 1.2 mph1.9 kmh 30.17 in1021.7 mb - 0.00 in0.0 mm 0.00 in0.0 mm
05:15 AM 34.8°F1.6°C 28.6°F-1.9°C 78% Calm Calm 2.3 mph3.7 kmh 30.18 in1022.0 mb - 0.00 in0.0 mm 0.00 in0.0 mm
05:30 AM 34.6°F1.4°C 28.8°F-1.8°C 79% 1.2 mph WSW1.9 kmh WSW 2.3 mph3.7 kmh 30.18 in1022.0 mb - 0.00 in0.0 mm 0.00 in0.0 mm
05:45 AM 34.7°F1.5°C 28.8°F-1.8°C 79% Calm Calm -- 30.18 in1022.0 mb - 0.00 in0.0 mm 0.00 in0.0 mm
06:00 AM 34.6°F1.4°C 28.8°F-1.8°C 79% Calm Calm -- 30.19 in1022.4 mb - 0.00 in0.0 mm 0.00 in0.0 mm
06:15 AM 34.3°F1.3°C 28.8°F-1.8°C 80% Calm Calm 1.2 mph1.9 kmh 30.18 in1022.0 mb - 0.00 in0.0 mm 0.00 in0.0 mm
06:30 AM 34.3°F1.3°C 29.1°F-1.6°C 81% 2.3 mph WSW3.7 kmh WSW 3.5 mph5.6 kmh 30.18 in1022.0 mb - 0.00 in0.0 mm 0.00 in0.0 mm
06:45 AM 34.8°F1.6°C 29.6°F-1.3°C 81% 2.3 mph WSW3.7 kmh WSW 3.5 mph5.6 kmh 30.18 in1022.0 mb - 0.00 in0.0 mm 0.00 in0.0 mm
07:00 AM 35.2°F1.8°C 29.7°F-1.3°C 80% 2.3 mph SW3.7 kmh SW 3.5 mph5.6 kmh 30.18 in1022.0 mb - 0.00 in0.0 mm 0.00 in0.0 mm
07:15 AM 35.9°F2.2°C 30.3°F-0.9°C 80% 3.5 mph SW5.6 kmh SW 4.6 mph7.4 kmh 30.18 in1022.0 mb - 0.00 in0.0 mm 0.00 in0.0 mm
07:30 AM 36.7°F2.6°C 30.8°F-0.7°C 79% 3.5 mph SW5.6 kmh SW 3.5 mph5.6 kmh 30.19 in1022.4 mb - 0.00 in0.0 mm 0.00 in0.0 mm
07:45 AM 37.2°F2.9°C 31.0°F-0.6°C 78% 1.2 mph SW1.9 kmh SW 2.3 mph3.7 kmh 30.20 in1022.7 mb - 0.00 in0.0 mm 0.00 in0.0 mm
08:00 AM 37.8°F3.2°C 31.6°F-0.2°C 78% Calm Calm -- 30.20 in1022.7 mb - 0.00 in0.0 mm 0.00 in0.0 mm
08:15 AM 39.1°F3.9°C 32.5°F0.3°C 77% Calm Calm 2.3 mph3.7 kmh 30.21 in1023.0 mb - 0.00 in0.0 mm 0.00 in0.0 mm
08:30 AM 40.5°F4.7°C 32.9°F0.5°C 74% 2.3 mph WSW3.7 kmh WSW 3.5 mph5.6 kmh 30.21 in1023.0 mb - 0.00 in0.0 mm 0.00 in0.0 mm
08:45 AM 41.4°F5.2°C 33.4°F0.8°C 73% 4.6 mph WSW7.4 kmh WSW 8.1 mph13.0 kmh 30.22 in1023.4 mb - 0.00 in0.0 mm 0.00 in0.0 mm
09:00 AM 42.1°F5.6°C 33.7°F0.9°C 72% 3.5 mph SSW5.6 kmh SSW 9.2 mph14.8 kmh 30.22 in1023.4 mb - 0.00 in0.0 mm 0.00 in0.0 mm
09:15 AM 42.7°F5.9°C 33.9°F1.1°C 71% 8.1 mph WSW13.0 kmh WSW 10.4 mph16.7 kmh 30.22 in1023.4 mb - 0.00 in0.0 mm 0.00 in0.0 mm
09:30 AM 43.1°F6.2°C 34.0°F1.1°C 70% 3.5 mph SW5.6 kmh SW 4.6 mph7.4 kmh 30.22 in1023.4 mb - 0.00 in0.0 mm 0.00 in0.0 mm
09:45 AM 43.6°F6.4°C 34.5°F1.4°C 70% 2.3 mph WSW3.7 kmh WSW 4.6 mph7.4 kmh 30.22 in1023.4 mb - 0.00 in0.0 mm 0.00 in0.0 mm
10:00 AM 44.1°F6.7°C 34.6°F1.4°C 69% 2.3 mph SW3.7 kmh SW 4.6 mph7.4 kmh 30.23 in1023.7 mb - 0.00 in0.0 mm 0.00 in0.0 mm
10:15 AM 44.4°F6.9°C 34.5°F1.4°C 68% 4.6 mph WSW7.4 kmh WSW 8.1 mph13.0 kmh 30.22 in1023.4 mb - 0.00 in0.0 mm 0.00 in0.0 mm
10:30 AM 45.1°F7.3°C 34.8°F1.6°C 67% 5.8 mph SSW9.3 kmh SSW 6.9 mph11.1 kmh 30.22 in1023.4 mb - 0.00 in0.0 mm 0.00 in0.0 mm
10:45 AM 45.6°F7.6°C 34.9°F1.6°C 66% 6.9 mph SW11.1 kmh SW 11.5 mph18.5 kmh 30.22 in1023.4 mb - 0.00 in0.0 mm 0.00 in0.0 mm
11:00 AM 46.4°F8.0°C 35.6°F2.0°C 66% 3.5 mph SW5.6 kmh SW 4.6 mph7.4 kmh 30.22 in1023.4 mb - 0.00 in0.0 mm 0.00 in0.0 mm
11:15 AM 46.6°F8.1°C 35.9°F2.2°C 66% 2.3 mph WSW3.7 kmh WSW 9.2 mph14.8 kmh 30.21 in1023.0 mb - 0.00 in0.0 mm 0.00 in0.0 mm
11:30 AM 46.6°F8.1°C 35.5°F1.9°C 65% 4.6 mph WSW7.4 kmh WSW 8.1 mph13.0 kmh 30.21 in1023.0 mb - 0.00 in0.0 mm 0.00 in0.0 mm
11:45 AM 47.0°F8.3°C 35.0°F1.7°C 63% 5.8 mph WSW9.3 kmh WSW 8.1 mph13.0 kmh 30.21 in1023.0 mb - 0.00 in0.0 mm 0.00 in0.0 mm
12:00 PM 46.9°F8.3°C 35.3°F1.8°C 64% 4.6 mph SW7.4 kmh SW 5.8 mph9.3 kmh 30.21 in1023.0 mb - 0.00 in0.0 mm 0.00 in0.0 mm
12:15 PM 47.3°F8.5°C 36.1°F2.3°C 65% 6.9 mph SW11.1 kmh SW 9.2 mph14.8 kmh 30.21 in1023.0 mb - 0.00 in0.0 mm 0.00 in0.0 mm
12:30 PM 47.0°F8.3°C 34.6°F1.4°C 62% 5.8 mph SW9.3 kmh SW 8.1 mph13.0 kmh 30.21 in1023.0 mb - 0.00 in0.0 mm 0.00 in0.0 mm
12:45 PM 47.6°F8.7°C 35.6°F2.0°C 63% 5.8 mph SW9.3 kmh SW 11.5 mph18.5 kmh 30.19 in1022.4 mb - 0.00 in0.0 mm 0.00 in0.0 mm
01:00 PM 48.3°F9.1°C 36.3°F2.4°C 63% 5.8 mph WSW9.3 kmh WSW 11.5 mph18.5 kmh 30.19 in1022.4 mb - 0.00 in0.0 mm 0.00 in0.0 mm
01:15 PM 49.0°F9.4°C 36.5°F2.5°C 62% 5.8 mph WSW9.3 kmh WSW 12.7 mph20.4 kmh 30.18 in1022.0 mb - 0.00 in0.0 mm 0.00 in0.0 mm
01:30 PM 49.2°F9.6°C 36.7°F2.6°C 62% 4.6 mph SW7.4 kmh SW 9.2 mph14.8 kmh 30.18 in1022.0 mb - 0.00 in0.0 mm 0.00 in0.0 mm
01:45 PM 49.9°F9.9°C 36.5°F2.5°C 60% 4.6 mph WSW7.4 kmh WSW 4.6 mph7.4 kmh 30.17 in1021.7 mb - 0.00 in0.0 mm 0.00 in0.0 mm
02:00 PM 50.2°F10.1°C 36.4°F2.4°C 59% 2.3 mph W3.7 kmh W 3.5 mph5.6 kmh 30.16 in1021.3 mb - 0.00 in0.0 mm 0.00 in0.0 mm
02:15 PM 51.8°F11.0°C 37.0°F2.8°C 57% 2.3 mph WSW3.7 kmh WSW 3.5 mph5.6 kmh 30.15 in1021.0 mb - 0.00 in0.0 mm 0.00 in0.0 mm
02:30 PM 50.5°F10.3°C 36.3°F2.4°C 58% 4.6 mph S7.4 kmh S 6.9 mph11.1 kmh 30.15 in1021.0 mb - 0.00 in0.0 mm 0.00 in0.0 mm
02:45 PM 50.0°F10.0°C 35.4°F1.9°C 57% 5.8 mph SW9.3 kmh SW 6.9 mph11.1 kmh 30.15 in1021.0 mb - 0.00 in0.0 mm 0.00 in0.0 mm
03:00 PM 50.2°F10.1°C 36.4°F2.4°C 59% 5.8 mph SW9.3 kmh SW 8.1 mph13.0 kmh 30.14 in1020.7 mb - 0.00 in0.0 mm 0.00 in0.0 mm
03:15 PM 50.4°F10.2°C 35.7°F2.1°C 57% 4.6 mph SW7.4 kmh SW 6.9 mph11.1 kmh 30.14 in1020.7 mb - 0.00 in0.0 mm 0.00 in0.0 mm
03:30 PM 50.7°F10.4°C 36.0°F2.2°C 57% 6.9 mph SW11.1 kmh SW 10.4 mph16.7 kmh 30.14 in1020.7 mb - 0.00 in0.0 mm 0.00 in0.0 mm
03:45 PM 50.7°F10.4°C 36.9°F2.7°C 59% 3.5 mph S5.6 kmh S 3.5 mph5.6 kmh 30.14 in1020.7 mb - 0.00 in0.0 mm 0.00 in0.0 mm
04:00 PM 50.8°F10.4°C 36.5°F2.5°C 58% 4.6 mph SW7.4 kmh SW 9.2 mph14.8 kmh 30.14 in1020.7 mb - 0.00 in0.0 mm 0.00 in0.0 mm
04:15 PM 50.5°F10.3°C 36.7°F2.6°C 59% 3.5 mph SW5.6 kmh SW 6.9 mph11.1 kmh 30.13 in1020.3 mb - 0.00 in0.0 mm 0.00 in0.0 mm
04:30 PM 50.1°F10.1°C 35.4°F1.9°C 57% 1.2 mph WSW1.9 kmh WSW 3.5 mph5.6 kmh 30.13 in1020.3 mb - 0.00 in0.0 mm 0.00 in0.0 mm
04:45 PM 50.0°F10.0°C 35.8°F2.1°C 58% 2.3 mph SW3.7 kmh SW 5.8 mph9.3 kmh 30.13 in1020.3 mb - 0.00 in0.0 mm 0.00 in0.0 mm
05:00 PM 50.2°F10.1°C 35.5°F1.9°C 57% 2.3 mph SSW3.7 kmh SSW 4.6 mph7.4 kmh 30.13 in1020.3 mb - 0.00 in0.0 mm 0.00 in0.0 mm
05:15 PM 49.9°F9.9°C 35.7°F2.1°C 58% 3.5 mph SSW5.6 kmh SSW 4.6 mph7.4 kmh 30.13 in1020.3 mb - 0.00 in0.0 mm 0.00 in0.0 mm
05:30 PM 49.8°F9.9°C 35.6°F2.0°C 58% 1.2 mph SSE1.9 kmh SSE 2.3 mph3.7 kmh 30.13 in1020.3 mb - 0.00 in0.0 mm 0.00 in0.0 mm
05:45 PM 49.4°F9.7°C 35.7°F2.1°C 59% 3.5 mph S5.6 kmh S 4.6 mph7.4 kmh 30.13 in1020.3 mb - 0.00 in0.0 mm 0.00 in0.0 mm
06:00 PM 49.3°F9.6°C 36.4°F2.4°C 61% Calm Calm -- 30.13 in1020.3 mb - 0.00 in0.0 mm 0.00 in0.0 mm
06:15 PM 48.4°F9.1°C 36.4°F2.4°C 63% 1.2 mph S1.9 kmh S 3.5 mph5.6 kmh 30.13 in1020.3 mb - 0.00 in0.0 mm 0.00 in0.0 mm
06:30 PM 47.4°F8.6°C 36.2°F2.3°C 65% 3.5 mph SSW5.6 kmh SSW 5.8 mph9.3 kmh 30.13 in1020.3 mb - 0.00 in0.0 mm 0.00 in0.0 mm
06:45 PM 47.8°F8.8°C 35.4°F1.9°C 62% 3.5 mph SW5.6 kmh SW 3.5 mph5.6 kmh 30.13 in1020.3 mb - 0.00 in0.0 mm 0.00 in0.0 mm
07:00 PM 47.9°F8.8°C 34.7°F1.5°C 60% 4.6 mph SW7.4 kmh SW 6.9 mph11.1 kmh 30.13 in1020.3 mb - 0.00 in0.0 mm 0.00 in0.0 mm
07:15 PM 48.2°F9.0°C 34.5°F1.4°C 59% 2.3 mph SW3.7 kmh SW 3.5 mph5.6 kmh 30.13 in1020.3 mb - 0.00 in0.0 mm 0.00 in0.0 mm
07:30 PM 48.3°F9.1°C 34.6°F1.4°C 59% Calm Calm 2.3 mph3.7 kmh 30.13 in1020.3 mb - 0.00 in0.0 mm 0.00 in0.0 mm
07:45 PM 47.5°F8.6°C 34.7°F1.5°C 61% Calm Calm 1.2 mph1.9 kmh 30.13 in1020.3 mb - 0.00 in0.0 mm 0.00 in0.0 mm
08:00 PM 47.4°F8.6°C 35.0°F1.7°C 62% 1.2 mph S1.9 kmh S 3.5 mph5.6 kmh 30.14 in1020.7 mb - 0.00 in0.0 mm 0.00 in0.0 mm
08:15 PM 47.3°F8.5°C 34.9°F1.6°C 62% 1.2 mph S1.9 kmh S 2.3 mph3.7 kmh 30.14 in1020.7 mb - 0.00 in0.0 mm 0.00 in0.0 mm
08:30 PM 47.1°F8.4°C 35.1°F1.7°C 63% 1.2 mph SSW1.9 kmh SSW 3.5 mph5.6 kmh 30.14 in1020.7 mb - 0.00 in0.0 mm 0.00 in0.0 mm
08:45 PM 46.8°F8.2°C 35.3°F1.8°C 64% 2.3 mph SSW3.7 kmh SSW 3.5 mph5.6 kmh 30.14 in1020.7 mb - 0.00 in0.0 mm 0.00 in0.0 mm
09:00 PM 46.9°F8.3°C 35.4°F1.9°C 64% 3.5 mph SSW5.6 kmh SSW 3.5 mph5.6 kmh 30.14 in1020.7 mb - 0.00 in0.0 mm 0.00 in0.0 mm
09:15 PM 47.1°F8.4°C 35.9°F2.2°C 65% 2.3 mph SSW3.7 kmh SSW 3.5 mph5.6 kmh 30.15 in1021.0 mb - 0.00 in0.0 mm 0.00 in0.0 mm
09:30 PM 46.9°F8.3°C 36.2°F2.3°C 66% 2.3 mph SSW3.7 kmh SSW 3.5 mph5.6 kmh 30.15 in1021.0 mb - 0.00 in0.0 mm 0.00 in0.0 mm
09:45 PM 46.7°F8.2°C 36.7°F2.6°C 68% 1.2 mph SSW1.9 kmh SSW 2.3 mph3.7 kmh 30.14 in1020.7 mb - 0.00 in0.0 mm 0.00 in0.0 mm
10:00 PM 46.4°F8.0°C 36.4°F2.4°C 68% 1.2 mph SW1.9 kmh SW 3.5 mph5.6 kmh 30.14 in1020.7 mb - 0.00 in0.0 mm 0.00 in0.0 mm
10:15 PM 46.3°F7.9°C 36.7°F2.6°C 69% 1.2 mph SW1.9 kmh SW 2.3 mph3.7 kmh 30.14 in1020.7 mb - 0.00 in0.0 mm 0.00 in0.0 mm
10:30 PM 46.1°F7.8°C 36.5°F2.5°C 69% 1.2 mph SW1.9 kmh SW 2.3 mph3.7 kmh 30.14 in1020.7 mb - 0.00 in0.0 mm 0.00 in0.0 mm
10:45 PM 45.9°F7.7°C 36.6°F2.6°C 70% 2.3 mph SW3.7 kmh SW 3.5 mph5.6 kmh 30.14 in1020.7 mb - 0.00 in0.0 mm 0.00 in0.0 mm
11:00 PM 45.9°F7.7°C 37.0°F2.8°C 71% 2.3 mph SW3.7 kmh SW 3.5 mph5.6 kmh 30.14 in1020.7 mb - 0.00 in0.0 mm 0.00 in0.0 mm
11:15 PM 46.0°F7.8°C 37.1°F2.8°C 71% Calm Calm 2.3 mph3.7 kmh 30.14 in1020.7 mb - 0.00 in0.0 mm 0.00 in0.0 mm
11:30 PM 45.8°F7.7°C 37.3°F2.9°C 72% 1.2 mph SW1.9 kmh SW 3.5 mph5.6 kmh 30.14 in1020.7 mb - 0.00 in0.0 mm 0.00 in0.0 mm
11:45 PM 45.9°F7.7°C 37.4°F3.0°C 72% 2.3 mph SW3.7 kmh SW 3.5 mph5.6 kmh 30.14 in1020.7 mb - 0.00 in0.0 mm 0.00 in0.0 mm